Time;durP1;ratioP1;P1;durP2;ratioP2;P2;SDS_P1;SDS_P2;PMS_P1;PMS_P2;Temp;Humidity;BMP_temperature;BMP_pressure;BME280_temperature;BME280_humidity;BME280_pressure;Samples;Min_cycle;Max_cycle;Signal;HPM_P1;HPM_P2
2021/08/26 00:06:49;;;;;;;1.65;1.50;;;;;;;15.63;76.27;99898.87;1700161;84;20996;-90
2021/08/26 00:09:17;;;;;;;2.40;1.07;;;;;;;15.61;76.29;99900.20;1671046;85;21591;-89
2021/08/26 00:11:48;;;;;;;2.55;1.35;;;;;;;15.57;76.26;99899.81;1700078;82;22789;-90
2021/08/26 00:14:16;;;;;;;2.52;1.17;;;;;;;15.51;76.26;99902.06;1671114;84;21042;-89
2021/08/26 00:16:42;;;;;;;2.00;1.27;;;;;;;15.49;76.37;99901.66;1700111;84;21016;-89
2021/08/26 00:19:11;;;;;;;1.77;1.37;;;;;;;15.47;76.39;99901.66;1699958;84;21023;-89
2021/08/26 00:21:40;;;;;;;3.30;1.52;;;;;;;15.47;76.41;99908.75;1700153;84;21015;-88
2021/08/26 00:24:08;;;;;;;2.27;1.60;;;;;;;15.44;76.45;99912.75;1699978;83;22519;-87
2021/08/26 00:26:35;;;;;;;1.98;1.32;;;;;;;15.42;76.54;99907.45;1670925;85;21010;-88
2021/08/26 00:29:06;;;;;;;3.00;1.52;;;;;;;15.42;76.60;99906.58;1667753;84;21443;-89
2021/08/26 00:31:33;;;;;;;2.27;1.47;;;;;;;15.42;76.67;99901.27;1701467;82;21004;-89
2021/08/26 00:34:00;;;;;;;3.27;1.92;;;;;;;15.39;76.74;99906.17;1715594;83;20981;-91
2021/08/26 00:36:27;;;;;;;4.37;2.37;;;;;;;15.43;76.78;99912.30;1704336;83;21226;-90
2021/08/26 00:38:54;;;;;;;4.37;2.00;;;;;;;15.44;76.79;99903.01;1702000;83;20988;-90
2021/08/26 00:41:24;;;;;;;4.78;2.33;;;;;;;15.43;76.73;99905.24;1701347;82;20960;-91
2021/08/26 00:43:52;;;;;;;7.25;3.02;;;;;;;15.44;76.75;99908.77;1662727;85;21445;-91
2021/08/26 00:46:18;;;;;;;5.35;2.55;;;;;;;15.42;76.77;99909.23;1700281;84;21651;-90
2021/08/26 00:48:47;;;;;;;3.83;2.27;;;;;;;15.42;76.81;99899.95;1700187;84;21668;-90
2021/08/26 00:51:15;;;;;;;4.80;2.65;;;;;;;15.43;76.81;99905.66;1668694;84;21063;-89
2021/08/26 00:53:42;;;;;;;6.12;2.80;;;;;;;15.42;76.83;99903.92;1671022;84;20994;-88
2021/08/26 00:56:14;;;;;;;3.47;2.42;;;;;;;15.43;76.89;99898.61;1700324;84;21491;-90
2021/08/26 00:58:48;;;;;;;8.00;5.33;;;;;;;15.45;76.94;99902.59;1700334;84;20960;-90
2021/08/26 01:01:15;;;;;;;2.90;2.20;;;;;;;15.44;76.94;99896.83;1699514;84;22551;-89
2021/08/26 01:03:56;;;;;;;5.47;2.83;;;;;;;15.46;76.97;99899.02;1670889;85;20993;-89
2021/08/26 01:06:30;;;;;;;6.25;3.35;;;;;;;15.47;77.01;99896.36;1698310;83;21020;-89
2021/08/26 01:09:02;;;;;;;4.03;2.45;;;;;;;15.48;76.98;99897.23;1699236;82;20984;-90
2021/08/26 01:11:32;;;;;;;3.85;2.10;;;;;;;15.47;76.98;99900.80;1700231;84;21015;-91
2021/08/26 01:13:59;;;;;;;3.22;2.22;;;;;;;15.47;77.07;99904.77;1700394;83;21753;-90
2021/08/26 01:16:26;;;;;;;4.90;2.42;;;;;;;15.47;77.13;99902.99;1700043;84;21008;-89
2021/08/26 01:18:52;;;;;;;4.40;2.40;;;;;;;15.45;77.10;99912.73;1700326;82;21017;-90
2021/08/26 01:21:22;;;;;;;4.95;3.35;;;;;;;15.45;77.18;99910.54;1700374;84;21008;-89
2021/08/26 01:23:53;;;;;;;4.78;2.37;;;;;;;15.44;77.25;99914.07;1700191;83;21024;-89
2021/08/26 01:26:25;;;;;;;4.70;2.75;;;;;;;15.45;77.31;99918.50;1700002;84;21742;-89
2021/08/26 01:28:53;;;;;;;3.60;2.33;;;;;;;15.45;77.40;99915.39;1698260;84;21016;-90
2021/08/26 01:31:21;;;;;;;4.30;2.77;;;;;;;15.44;77.39;99920.24;1700074;82;20988;-89
2021/08/26 01:33:55;;;;;;;4.03;2.85;;;;;;;15.45;77.42;99924.67;1668207;84;21153;-90
2021/08/26 01:36:29;;;;;;;3.15;2.52;;;;;;;15.46;77.46;99924.22;1700140;82;20984;-91
2021/08/26 01:39:03;;;;;;;6.80;2.60;;;;;;;15.46;77.45;99921.56;1700169;83;21511;-90
2021/08/26 01:41:40;;;;;;;5.47;3.08;;;;;;;15.44;77.47;99924.22;1699699;84;21477;-90
2021/08/26 01:44:08;;;;;;;4.75;2.35;;;;;;;15.42;77.47;99923.36;1657157;85;21002;-88
2021/08/26 01:46:35;;;;;;;4.50;2.70;;;;;;;15.39;77.50;99918.52;1699777;84;21059;-89
2021/08/26 01:49:02;;;;;;;4.85;2.50;;;;;;;15.37;77.52;99922.50;1699830;84;21639;-89
2021/08/26 01:51:29;;;;;;;4.47;2.05;;;;;;;15.35;77.51;99917.66;1699781;82;21783;-89
2021/08/26 01:53:56;;;;;;;3.70;2.30;;;;;;;15.31;77.51;99923.44;1699845;82;21008;-89
2021/08/26 01:56:23;;;;;;;3.27;2.10;;;;;;;15.30;77.52;99924.80;1699858;82;21028;-89
2021/08/26 01:58:50;;;;;;;3.83;2.25;;;;;;;15.27;77.54;99931.44;1700027;82;20989;-90
2021/08/26 02:01:19;;;;;;;4.72;2.60;;;;;;;15.24;77.57;99931.03;1700049;84;21011;-89
2021/08/26 02:03:45;;;;;;;4.10;2.77;;;;;;;15.20;77.61;99926.61;1700347;82;21813;-90
2021/08/26 02:06:12;;;;;;;3.45;2.55;;;;;;;15.19;77.68;99925.33;1700092;82;20992;-89
2021/08/26 02:08:39;;;;;;;3.87;2.60;;;;;;;15.16;77.74;99926.20;1668625;84;21445;-88
2021/08/26 02:11:09;;;;;;;5.08;2.80;;;;;;;15.12;77.82;99920.50;1670817;84;21026;-88
2021/08/26 02:13:36;;;;;;;3.52;2.65;;;;;;;15.13;77.88;99921.81;1700111;84;21052;-91
2021/08/26 02:16:03;;;;;;;4.03;2.98;;;;;;;15.13;77.96;99927.12;1668646;84;22664;-89
2021/08/26 02:18:30;;;;;;;4.35;3.02;;;;;;;15.14;77.93;99926.21;1700091;82;21081;-90
2021/08/26 02:20:59;;;;;;;5.92;3.05;;;;;;;15.13;77.91;99926.25;1700272;82;20957;-90
2021/08/26 02:23:26;;;;;;;4.28;2.98;;;;;;;15.11;77.90;99921.41;1700135;82;21445;-91
2021/08/26 02:25:52;;;;;;;5.22;2.80;;;;;;;15.09;77.86;99928.03;1670970;84;21053;-90
2021/08/26 02:28:22;;;;;;;7.12;3.42;;;;;;;15.06;77.88;99921.42;1700080;82;21182;-90
2021/08/26 02:30:48;;;;;;;3.90;2.87;;;;;;;15.02;77.84;99924.98;1699708;83;20980;-91
2021/08/26 02:33:15;;;;;;;6.78;2.80;;;;;;;14.98;77.84;99924.58;1700128;82;21000;-89
2021/08/26 02:35:45;;;;;;;5.50;2.80;;;;;;;14.91;77.83;99926.37;1670970;84;20975;-90
2021/08/26 02:38:10;;;;;;;5.53;3.12;;;;;;;14.85;77.88;99918.92;1700049;82;20977;-90
2021/08/26 02:40:37;;;;;;;5.85;3.20;;;;;;;14.79;77.98;99922.48;1670891;84;21221;-90
2021/08/26 02:43:04;;;;;;;6.50;3.20;;;;;;;14.74;78.07;99924.27;1699928;83;21004;-90
2021/08/26 02:45:37;;;;;;;5.37;3.25;;;;;;;14.69;78.21;99925.59;1700157;84;21003;-90
2021/08/26 02:48:04;;;;;;;7.17;2.95;;;;;;;14.68;78.34;99925.63;1700363;84;21044;-90
2021/08/26 02:50:31;;;;;;;5.50;3.62;;;;;;;14.65;78.42;99925.63;1700353;82;21085;-89
2021/08/26 02:52:58;;;;;;;6.65;3.22;;;;;;;14.62;78.50;99926.54;1700167;84;21813;-89
2021/08/26 02:55:25;;;;;;;5.85;3.33;;;;;;;14.60;78.55;99926.09;1704247;82;21478;-90
2021/08/26 02:57:52;;;;;;;4.95;2.90;;;;;;;14.55;78.53;99932.27;1700255;84;21490;-90
2021/08/26 03:00:22;;;;;;;4.80;3.25;;;;;;;14.50;78.52;99933.17;1668214;84;21008;-91
2021/08/26 03:02:49;;;;;;;5.85;3.47;;;;;;;14.45;78.55;99930.98;1668724;84;21012;-88
2021/08/26 03:05:16;;;;;;;6.62;3.60;;;;;;;14.36;78.56;99928.81;1700141;82;21734;-89
2021/08/26 03:07:43;;;;;;;6.25;3.35;;;;;;;14.30;78.63;99926.61;1699934;82;21028;-89
2021/08/26 03:10:10;;;;;;;5.58;3.20;;;;;;;14.24;78.74;99924.00;1670840;84;21029;-89
2021/08/26 03:12:37;;;;;;;6.85;3.40;;;;;;;14.16;78.81;99926.22;1700015;84;21485;-89
2021/08/26 03:15:05;;;;;;;6.37;3.22;;;;;;;14.10;78.91;99928.02;1700070;84;21016;-90
2021/08/26 03:17:32;;;;;;;6.90;3.37;;;;;;;14.04;79.05;99922.30;1685751;83;21784;-89
2021/08/26 03:19:58;;;;;;;7.00;3.45;;;;;;;13.99;79.14;99922.74;1699887;82;21032;-89
2021/08/26 03:22:25;;;;;;;6.05;3.65;;;;;;;13.96;79.24;99922.73;1699959;84;21032;-88
2021/08/26 03:24:54;;;;;;;8.53;4.15;;;;;;;13.94;79.34;99933.31;1714887;83;21008;-89
2021/08/26 03:27:25;;;;;;;4.97;3.05;;;;;;;13.90;79.36;99928.92;1700116;84;21048;-91
2021/08/26 03:29:52;;;;;;;6.65;4.50;;;;;;;13.85;79.39;99929.40;1700039;82;21796;-90
2021/08/26 03:32:19;;;;;;;7.37;3.95;;;;;;;13.81;79.42;99928.94;1700136;82;20972;-93
2021/08/26 03:34:46;;;;;;;11.40;5.65;;;;;;;13.76;79.52;99928.09;1716023;83;21040;-92
2021/08/26 03:37:13;;;;;;;9.95;3.72;;;;;;;13.71;79.60;99934.69;1700575;84;20956;-90
2021/08/26 03:39:39;;;;;;;7.75;3.77;;;;;;;13.67;79.66;99932.06;1700132;82;21663;-89
2021/08/26 03:42:06;;;;;;;5.72;3.70;;;;;;;13.63;79.75;99936.88;1700264;84;21877;-90
2021/08/26 03:44:33;;;;;;;7.47;3.58;;;;;;;13.60;79.87;99937.78;1700137;84;21067;-89
2021/08/26 03:47:00;;;;;;;6.28;3.55;;;;;;;13.56;79.94;99932.92;1700353;82;21481;-90
2021/08/26 03:49:29;;;;;;;8.65;3.77;;;;;;;13.56;80.04;99937.34;1700282;84;21093;-89
2021/08/26 03:51:56;;;;;;;8.20;4.35;;;;;;;13.54;80.11;99936.02;1700129;82;21517;-88
2021/08/26 03:54:23;;;;;;;12.03;4.08;;;;;;;13.53;80.21;99935.59;1700492;84;21976;-91
2021/08/26 03:56:52;;;;;;;8.10;4.35;;;;;;;13.54;80.28;99938.66;1700473;84;20965;-91
2021/08/26 03:59:23;;;;;;;6.67;3.92;;;;;;;13.53;80.30;99934.27;1671065;85;21413;-89
2021/08/26 04:01:48;;;;;;;6.87;4.00;;;;;;;13.54;80.39;99939.11;1699682;83;21543;-90
2021/08/26 04:04:15;;;;;;;9.25;4.40;;;;;;;13.55;80.44;99939.11;1700168;84;21097;-90
2021/08/26 04:06:42;;;;;;;15.60;3.95;;;;;;;13.56;80.54;99936.02;1700048;84;21919;-90
2021/08/26 04:09:09;;;;;;;6.45;3.70;;;;;;;13.60;80.56;99941.30;1670920;85;20986;-92
2021/08/26 04:11:35;;;;;;;6.72;3.58;;;;;;;13.62;80.57;99933.37;1700180;84;21035;-92
2021/08/26 04:14:02;;;;;;;7.33;4.70;;;;;;;13.66;80.55;99933.80;1700213;84;21039;-90
2021/08/26 04:16:29;;;;;;;5.60;4.00;;;;;;;13.70;80.56;99939.55;1700004;82;20992;-89
2021/08/26 04:18:55;;;;;;;10.80;4.25;;;;;;;13.76;80.62;99938.21;1704834;82;21907;-88
2021/08/26 04:21:22;;;;;;;9.48;4.50;;;;;;;13.84;80.66;99932.91;1730984;82;20968;-87
2021/08/26 04:23:53;;;;;;;5.33;4.10;;;;;;;13.92;80.64;99944.80;1731242;81;21463;-89
2021/08/26 04:26:22;;;;;;;9.30;3.60;;;;;;;14.02;80.59;99939.95;1747915;81;21030;-89
2021/08/26 04:28:48;;;;;;;8.35;4.35;;;;;;;14.15;80.64;99940.36;1756880;81;20990;-88
2021/08/26 04:31:15;;;;;;;6.12;3.83;;;;;;;14.61;81.69;99940.66;1756929;81;21739;-88
2021/08/26 04:33:42;;;;;;;8.08;3.70;;;;;;;15.58;81.75;99930.76;1756849;81;20951;-89
2021/08/26 04:36:09;;;;;;;7.72;3.77;;;;;;;16.33;80.98;99937.12;1757060;81;21037;-88
2021/08/26 04:38:36;;;;;;;7.17;3.87;;;;;;;17.15;80.48;99934.27;1754620;81;21066;-90
2021/08/26 04:41:02;;;;;;;9.33;7.58;;;;;;;18.20;78.84;99937.38;1755563;81;20975;-88
2021/08/26 04:43:29;;;;;;;8.45;3.62;;;;;;;19.58;78.91;99929.95;1754387;81;21922;-88
2021/08/26 04:45:57;;;;;;;3.05;2.50;;;;;;;21.26;77.17;99930.56;1753980;81;21110;-87
2021/08/26 04:48:23;;;;;;;3.98;2.47;;;;;;;22.77;74.71;99927.55;1756191;81;20990;-88
2021/08/26 04:50:57;;;;;;;5.80;3.20;;;;;;;24.04;72.10;99932.25;1728829;81;21425;-95
2021/08/26 04:53:27;;;;;;;4.72;2.25;;;;;;;25.28;69.98;99928.80;1753944;81;21062;-96
2021/08/26 04:55:54;;;;;;;4.30;2.52;;;;;;;26.35;67.58;99929.67;1756920;81;21755;-91
2021/08/26 04:58:24;;;;;;;6.72;3.35;;;;;;;27.26;65.44;99936.41;1756838;81;21021;-88
2021/08/26 05:00:55;;;;;;;3.83;2.62;;;;;;;28.00;63.30;99936.14;1755993;81;20991;-92
2021/08/26 05:03:25;;;;;;;4.05;2.20;;;;;;;28.69;61.92;99932.38;1702623;81;20971;-91
2021/08/26 05:05:53;;;;;;;2.75;2.05;;;;;;;29.57;60.07;99924.85;1731285;81;20969;-92
2021/08/26 05:08:23;;;;;;;4.47;2.42;;;;;;;30.16;58.49;99927.16;1731250;82;22629;-92
2021/08/26 05:10:52;;;;;;;6.15;3.30;;;;;;;30.82;56.87;99932.48;1731037;81;21129;-93
2021/08/26 05:13:22;;;;;;;4.85;2.27;;;;;;;31.33;55.29;99924.73;1730863;82;20980;-93
2021/08/26 05:15:49;;;;;;;5.10;1.98;;;;;;;31.95;54.13;99927.26;1730763;82;21477;-91
2021/08/26 05:18:19;;;;;;;5.20;2.40;;;;;;;32.27;52.25;99923.90;1729454;82;20988;-92
2021/08/26 05:20:45;;;;;;;3.87;2.52;;;;;;;32.59;51.51;99923.73;1697870;82;21753;-92
2021/08/26 05:23:12;;;;;;;4.33;2.20;;;;;;;32.81;49.94;99929.17;1692126;82;21033;-92
2021/08/26 05:25:39;;;;;;;6.22;2.87;;;;;;;32.32;48.66;99920.80;1658674;85;20987;-93
2021/08/26 05:28:05;;;;;;;4.95;2.47;;;;;;;31.18;47.96;99919.45;1667853;85;21167;-90
2021/08/26 05:30:42;;;;;;;4.33;2.33;;;;;;;29.86;46.97;99920.67;1661602;83;21524;-92
2021/08/26 05:33:09;;;;;;;3.17;2.75;;;;;;;28.38;46.98;99919.86;1691552;83;21869;-91
2021/08/26 05:35:38;;;;;;;4.65;2.22;;;;;;;26.91;47.33;99925.72;1691789;83;21002;-92
2021/08/26 05:38:04;;;;;;;2.77;1.90;;;;;;;25.67;48.47;99926.91;1689873;83;21007;-93
2021/08/26 05:40:33;;;;;;;4.30;2.25;;;;;;;24.83;49.24;99931.39;1688046;83;21089;-92
2021/08/26 05:43:00;;;;;;;2.90;1.80;;;;;;;24.02;49.88;99932.75;1688148;85;21506;-91
2021/08/26 05:45:27;;;;;;;2.50;1.82;;;;;;;23.27;50.62;99927.84;1688094;85;21818;-92
2021/08/26 05:48:43;;;;;;;2.15;1.60;;;;;;;22.71;51.60;99927.31;1693436;83;21039;-91
2021/08/26 05:51:31;;;;;;;1.42;1.32;;;;;;;22.23;51.86;99929.51;1659990;84;21031;-94
2021/08/26 05:53:52;;;;;;;6.28;4.80;;;;;;;21.43;52.83;99932.22;1657110;86;21008;-93
2021/08/26 05:56:27;;;;;;;3.62;3.00;;;;;;;20.91;53.60;99932.53;1637081;86;21035;-91
2021/08/26 05:58:53;;;;;;;2.83;1.72;;;;;;;20.55;54.33;99938.03;1653948;85;21998;-95
2021/08/26 06:01:23;;;;;;;3.60;2.05;;;;;;;20.19;55.05;99935.02;1659677;85;21098;-91
2021/08/26 06:03:49;;;;;;;6.05;2.05;;;;;;;19.80;56.68;99943.63;1638058;86;21003;-95
2021/08/26 06:06:21;;;;;;;2.67;1.52;;;;;;;19.80;56.68;99943.63;1659299;86;21023;-92
2021/08/26 06:08:48;;;;;;;3.37;1.77;;;;;;;19.77;57.11;99941.94;1659620;85;21038;-90
2021/08/26 06:11:17;;;;;;;5.15;1.35;;;;;;;19.78;57.57;99947.70;1659616;84;21016;-91
2021/08/26 06:13:44;;;;;;;4.30;2.25;;;;;;;19.81;57.52;99948.94;1659362;86;21539;-94
2021/08/26 06:16:11;;;;;;;3.67;1.60;;;;;;;19.86;57.51;99945.27;1659664;84;20980;-93
2021/08/26 06:18:40;;;;;;;3.65;1.50;;;;;;;19.90;57.62;99953.64;1659530;84;21023;-93
2021/08/26 06:21:28;;;;;;;2.10;1.17;;;;;;;19.97;57.70;99956.11;1659758;86;21524;-94
2021/08/26 06:23:54;;;;;;;2.35;1.22;;;;;;;20.12;58.01;99960.17;1659926;86;21776;-87
2021/08/26 06:26:21;;;;;;;4.17;1.52;;;;;;;20.35;58.17;99955.52;1662297;84;21088;-95
2021/08/26 06:28:49;;;;;;;1.37;0.90;;;;;;;20.39;57.59;99950.97;1661618;86;21041;-94
2021/08/26 06:31:16;;;;;;;1.55;0.90;;;;;;;20.24;57.50;99956.28;1661673;84;21028;-95
2021/08/26 06:33:44;;;;;;;2.33;1.20;;;;;;;20.05;57.54;99963.05;1662078;86;21020;-92
2021/08/26 06:36:10;;;;;;;3.83;1.20;;;;;;;19.88;57.86;99965.70;1661697;85;21769;-93
2021/08/26 06:38:37;;;;;;;4.60;1.37;;;;;;;19.71;58.18;99959.42;1661328;86;21039;-92
2021/08/26 06:41:04;;;;;;;1.20;0.93;;;;;;;19.64;58.47;99954.28;1661080;86;21036;-92
2021/08/26 06:43:32;;;;;;;2.08;1.62;;;;;;;19.55;58.55;99966.92;1638595;86;21197;-93
2021/08/26 06:45:59;;;;;;;2.70;1.85;;;;;;;19.41;58.48;99970.39;1661381;86;21519;-92
2021/08/26 06:48:26;;;;;;;3.67;2.42;;;;;;;19.29;58.55;99967.53;1661219;86;21806;-92
2021/08/26 06:50:53;;;;;;;5.12;1.65;;;;;;;19.21;58.80;99973.05;1661663;86;20993;-93
2021/08/26 06:53:20;;;;;;;4.03;3.27;;;;;;;19.04;58.92;99968.56;1662041;86;21032;-93
2021/08/26 06:55:47;;;;;;;3.02;1.85;;;;;;;18.84;59.13;99968.56;1662090;86;21053;-93
2021/08/26 06:58:13;;;;;;;2.77;1.00;;;;;;;18.65;59.23;99965.81;1662031;84;21076;-93
2021/08/26 07:00:40;;;;;;;3.08;1.80;;;;;;;18.49;59.58;99969.25;1661846;86;21851;-93
2021/08/26 07:03:09;;;;;;;6.62;2.05;;;;;;;18.42;60.00;99972.48;1638398;84;21053;-95
2021/08/26 07:05:37;;;;;;;6.92;2.42;;;;;;;18.30;60.06;99975.41;1661909;86;21514;-93
2021/08/26 07:08:06;;;;;;;7.65;4.50;;;;;;;18.14;60.30;99975.26;1661091;85;21017;-92
2021/08/26 07:10:33;;;;;;;4.47;1.75;;;;;;;18.00;60.43;99971.49;1661538;86;21040;-93
2021/08/26 07:13:01;;;;;;;3.70;2.00;;;;;;;17.93;61.02;99972.53;1637585;86;21554;-93
2021/08/26 07:15:29;;;;;;;2.25;1.60;;;;;;;17.92;61.11;99976.95;1637627;86;39816;-92
2021/08/26 07:17:56;;;;;;;6.97;2.27;;;;;;;17.95;61.25;99973.38;1661578;84;21021;-92
2021/08/26 07:20:23;;;;;;;5.15;2.85;;;;;;;18.00;61.38;99976.39;1661676;84;21596;-94
2021/08/26 07:22:49;;;;;;;2.67;1.37;;;;;;;18.04;61.40;99979.41;1661901;85;21056;-93
2021/08/26 07:25:16;;;;;;;2.67;1.30;;;;;;;18.10;61.31;99981.55;1661772;86;21736;-94
2021/08/26 07:27:45;;;;;;;2.02;1.15;;;;;;;18.12;60.88;99987.27;1661788;86;21040;-94
2021/08/26 07:30:12;;;;;;;1.15;0.78;;;;;;;18.20;60.50;99979.13;1661959;86;21018;-94
2021/08/26 07:32:41;;;;;;;3.35;1.37;;;;;;;18.37;60.78;99977.02;1661507;85;21021;-94
2021/08/26 07:35:08;;;;;;;4.28;2.20;;;;;;;18.63;60.68;99979.63;1661811;86;21540;-94
2021/08/26 07:37:35;;;;;;;1.32;1.00;;;;;;;19.06;60.70;99971.20;1661744;84;22432;-94
2021/08/26 07:40:03;;;;;;;2.58;1.20;;;;;;;19.60;60.00;99973.03;1661708;86;21497;-89
2021/08/26 07:42:29;;;;;;;1.05;0.95;;;;;;;20.00;59.45;99973.38;1638788;86;21049;-93
2021/08/26 07:45:02;;;;;;;7.08;2.90;;;;;;;20.31;59.04;99971.23;1661622;84;21258;-92
2021/08/26 07:47:25;;;;;;;3.52;2.27;;;;;;;20.46;58.20;99982.40;1661152;84;21052;-92
2021/08/26 07:49:51;;;;;;;2.50;0.95;;;;;;;20.44;57.62;99982.47;1661868;84;21673;-92
2021/08/26 07:52:18;;;;;;;1.40;1.00;;;;;;;20.41;57.49;99977.19;1661641;86;21017;-88
2021/08/26 07:54:45;;;;;;;1.12;0.60;;;;;;;20.39;57.35;99992.40;1666203;84;21561;-92
2021/08/26 07:57:12;;;;;;;0.60;0.57;;;;;;;20.27;56.97;99995.39;1661765;84;21845;-93
2021/08/26 07:59:39;;;;;;;1.02;0.90;;;;;;;20.19;57.07;99992.93;1662117;84;21012;-92
2021/08/26 08:02:07;;;;;;;1.72;0.95;;;;;;;20.15;56.94;100005.95;1662044;86;22397;-91
2021/08/26 08:04:34;;;;;;;4.17;0.85;;;;;;;20.10;56.50;99999.85;1662035;86;21015;-92
2021/08/26 08:07:01;;;;;;;1.75;0.42;;;;;;;20.08;56.46;99999.88;1662672;85;21481;-92
2021/08/26 08:09:28;;;;;;;2.17;0.80;;;;;;;20.05;56.10;100003.99;1661771;84;21025;-93
2021/08/26 08:11:55;;;;;;;0.75;0.40;;;;;;;19.94;56.10;100002.92;1664053;84;21068;-93
2021/08/26 08:14:21;;;;;;;1.87;0.90;;;;;;;19.94;56.43;100007.40;1638715;86;23219;-91
2021/08/26 08:16:48;;;;;;;4.58;2.85;;;;;;;20.00;56.69;99996.08;1661561;86;21045;-93
2021/08/26 08:19:17;;;;;;;3.05;1.85;;;;;;;20.13;56.71;100000.65;1661741;86;21088;-91
2021/08/26 08:21:43;;;;;;;3.80;0.82;;;;;;;20.27;56.64;99996.30;1661449;84;21577;-92
2021/08/26 08:24:10;;;;;;;2.95;1.35;;;;;;;20.31;56.42;99997.05;1661458;84;21032;-92
2021/08/26 08:26:37;;;;;;;2.40;1.17;;;;;;;20.36;56.38;100000.49;1638574;86;22545;-93
2021/08/26 08:29:03;;;;;;;1.45;0.88;;;;;;;20.48;56.36;99997.97;1661448;84;21008;-93
2021/08/26 08:31:30;;;;;;;5.58;1.57;;;;;;;20.56;56.17;100002.63;1661613;84;21062;-92
2021/08/26 08:33:57;;;;;;;2.95;1.10;;;;;;;20.58;55.73;99994.97;1661703;84;21009;-91
2021/08/26 08:36:24;;;;;;;2.45;0.70;;;;;;;20.60;55.56;99996.30;1661785;86;21108;-93
2021/08/26 08:38:51;;;;;;;1.05;0.60;;;;;;;20.69;55.53;99997.84;1661887;86;21811;-93
2021/08/26 08:41:17;;;;;;;0.45;0.42;;;;;;;20.78;55.37;99998.45;1661434;86;21082;-92
2021/08/26 08:43:44;;;;;;;0.65;0.55;;;;;;;20.94;55.43;100003.34;1661566;85;20997;-93
2021/08/26 08:46:11;;;;;;;3.50;1.72;;;;;;;21.06;55.16;99999.41;1661526;84;21007;-93
2021/08/26 08:48:41;;;;;;;4.87;3.40;;;;;;;21.17;55.18;100007.98;1661440;84;21041;-92
2021/08/26 08:51:09;;;;;;;1.77;1.20;;;;;;;21.30;54.71;100004.04;1661364;85;21747;-93
2021/08/26 08:53:37;;;;;;;1.85;0.85;;;;;;;21.37;54.71;100000.69;1661238;84;21012;-92
2021/08/26 08:56:09;;;;;;;0.88;0.70;;;;;;;21.52;54.43;100002.04;1661710;84;21036;-92
2021/08/26 08:58:38;;;;;;;1.37;0.72;;;;;;;21.61;54.31;100007.58;1661723;84;21029;-93
2021/08/26 09:01:05;;;;;;;3.35;2.40;;;;;;;21.57;53.53;100012.59;1700404;83;21541;-93
2021/08/26 09:03:32;;;;;;;2.47;0.90;;;;;;;21.40;53.58;100009.98;1700678;84;21899;-92
2021/08/26 09:05:59;;;;;;;2.05;1.12;;;;;;;21.40;53.96;100015.33;1701157;84;20984;-93
2021/08/26 09:08:28;;;;;;;1.87;0.60;;;;;;;21.41;53.81;100015.73;1700914;84;20992;-92
2021/08/26 09:11:10;;;;;;;1.77;0.60;;;;;;;21.37;53.77;100011.40;1700583;81;21654;-93
2021/08/26 09:13:37;;;;;;;3.83;0.30;;;;;;;21.35;53.81;100017.27;1681003;83;20969;-93
2021/08/26 09:16:06;;;;;;;1.10;0.72;;;;;;;21.36;53.61;100013.68;1700173;84;21001;-93
2021/08/26 09:18:33;;;;;;;0.40;0.30;;;;;;;21.44;53.64;100017.02;1700750;84;21450;-90
2021/08/26 09:21:13;;;;;;;2.42;1.32;;;;;;;21.59;53.32;100022.81;1701092;84;21004;-93
2021/08/26 09:23:54;;;;;;;1.27;1.17;;;;;;;21.59;52.72;100020.14;1701286;84;20980;-93
2021/08/26 09:26:24;;;;;;;1.57;1.42;;;;;;;21.55;52.08;100028.27;1701007;83;21016;-92
2021/08/26 09:28:51;;;;;;;1.98;0.82;;;;;;;21.44;51.84;100038.44;1700888;83;22711;-92
2021/08/26 09:31:25;;;;;;;1.40;0.90;;;;;;;21.48;52.10;100038.75;1700633;84;21111;-92
2021/08/26 09:34:04;;;;;;;2.42;1.50;;;;;;;21.60;52.12;100032.59;1701149;84;20973;-93
2021/08/26 09:36:55;;;;;;;2.65;0.78;;;;;;;21.72;52.02;100038.43;1701196;84;21000;-94
2021/08/26 09:39:29;;;;;;;1.47;1.10;;;;;;;21.72;51.50;100037.56;1700316;84;21513;-92
2021/08/26 09:41:58;;;;;;;2.87;0.80;;;;;;;21.55;50.94;100035.42;1701109;82;21568;-91
2021/08/26 09:44:29;;;;;;;0.73;0.70;;;;;;;21.67;51.37;100036.36;1700762;84;21072;-93
2021/08/26 09:47:02;;;;;;;1.07;0.50;;;;;;;21.90;51.28;100037.41;1702773;83;21027;-93
2021/08/26 09:49:31;;;;;;;1.82;1.20;;;;;;;21.96;51.04;100039.00;1700972;84;21160;-93
2021/08/26 09:52:13;;;;;;;1.98;0.60;;;;;;;21.93;50.66;100039.52;1700791;83;21067;-93
2021/08/26 09:54:49;;;;;;;0.53;0.42;;;;;;;21.91;50.92;100048.08;1700860;83;21746;-93
2021/08/26 09:57:29;;;;;;;2.35;0.60;;;;;;;21.84;49.99;100040.30;1700674;84;21031;-93
2021/08/26 09:59:57;;;;;;;0.53;0.30;;;;;;;21.82;49.60;100044.83;1700619;84;20988;-92
2021/08/26 10:02:27;;;;;;;0.65;0.40;;;;;;;21.51;49.78;100023.94;1700656;84;21065;-93
2021/08/26 10:04:54;;;;;;;0.75;0.30;;;;;;;21.43;49.28;100062.53;1700784;83;20969;-93
2021/08/26 10:07:23;;;;;;;0.60;0.40;;;;;;;21.06;48.66;100061.86;1700370;84;21745;-92
2021/08/26 10:09:49;;;;;;;1.25;0.68;;;;;;;20.58;48.27;100072.50;1700373;84;20969;-92
2021/08/26 10:12:18;;;;;;;1.07;0.60;;;;;;;20.06;49.11;100083.67;1700303;84;21007;-91
2021/08/26 10:14:51;;;;;;;2.75;0.50;;;;;;;19.51;49.97;100093.83;1700149;83;21830;-92
2021/08/26 10:17:21;;;;;;;1.80;0.60;;;;;;;18.94;50.76;100086.58;1700446;84;21069;-91
2021/08/26 10:19:50;;;;;;;1.20;0.53;;;;;;;18.42;51.79;100090.19;1699858;84;21037;-92
2021/08/26 10:22:16;;;;;;;3.37;0.60;;;;;;;18.04;52.69;100087.73;1700170;84;21047;-92
2021/08/26 10:24:43;;;;;;;3.20;0.60;;;;;;;17.76;53.40;100092.12;1700561;84;21035;-90
2021/08/26 10:27:17;;;;;;;1.12;0.55;;;;;;;17.62;54.25;100100.74;1700269;84;20984;-93
2021/08/26 10:29:48;;;;;;;1.85;0.62;;;;;;;17.47;54.85;100100.50;1700658;84;21522;-92
2021/08/26 10:32:25;;;;;;;3.60;1.02;;;;;;;17.46;55.47;100101.42;1700433;84;21710;-92
2021/08/26 10:35:10;;;;;;;1.77;0.72;;;;;;;17.45;55.90;100106.30;1700421;84;20996;-92
2021/08/26 10:37:49;;;;;;;1.12;0.70;;;;;;;17.49;56.52;100113.34;1700363;83;21004;-92
2021/08/26 10:40:30;;;;;;;1.17;0.60;;;;;;;17.58;56.71;100114.54;1700541;84;21541;-92
2021/08/26 10:42:57;;;;;;;1.27;0.50;;;;;;;17.79;56.62;100108.48;1700457;84;21014;-91
2021/08/26 10:45:27;;;;;;;2.27;0.65;;;;;;;17.99;56.67;100109.09;1700412;84;21741;-93
2021/08/26 10:48:03;;;;;;;2.92;0.50;;;;;;;18.12;56.54;100111.58;1700574;84;21052;-93
2021/08/26 10:50:35;;;;;;;1.98;0.50;;;;;;;18.26;56.88;100106.88;1700096;84;21003;-92
2021/08/26 10:53:11;;;;;;;0.90;0.65;;;;;;;18.56;56.97;100104.59;1700105;84;21011;-92
2021/08/26 10:55:47;;;;;;;1.35;1.15;;;;;;;18.79;56.62;100104.18;1700193;84;21007;-92
2021/08/26 10:58:26;;;;;;;2.47;1.85;;;;;;;18.98;55.69;100107.39;1700256;84;22498;-92
2021/08/26 11:00:58;;;;;;;2.85;2.17;;;;;;;19.03;54.81;100096.16;1699894;83;21618;-92
2021/08/26 11:03:45;;;;;;;3.05;1.05;;;;;;;18.94;54.34;100099.91;1700229;84;21013;-93
2021/08/26 11:06:31;;;;;;;0.82;0.30;;;;;;;18.93;53.90;100109.27;1696559;83;21028;-93
2021/08/26 11:09:01;;;;;;;0.57;0.30;;;;;;;18.93;53.88;100110.14;1699552;84;21472;-92
2021/08/26 11:11:33;;;;;;;0.57;0.50;;;;;;;19.01;53.66;100105.98;1701610;83;21800;-94
2021/08/26 11:14:08;;;;;;;1.82;0.57;;;;;;;19.05;53.56;100109.03;1701130;84;20964;-94
2021/08/26 11:16:36;;;;;;;2.55;0.72;;;;;;;19.22;53.47;100109.56;1701412;83;20974;-93
2021/08/26 11:19:14;;;;;;;0.90;0.50;;;;;;;19.34;53.40;100104.41;1701442;84;21110;-94
2021/08/26 11:21:46;;;;;;;0.80;0.40;;;;;;;19.38;53.11;100110.56;1701178;84;21007;-93
2021/08/26 11:24:27;;;;;;;1.50;0.20;;;;;;;19.44;53.27;100109.09;1701086;84;22539;-93
2021/08/26 11:26:58;;;;;;;0.95;0.45;;;;;;;19.47;52.94;100119.70;1701073;84;20972;-91
2021/08/26 11:29:32;;;;;;;2.30;0.37;;;;;;;19.39;53.15;100118.55;1700768;84;21004;-93
2021/08/26 11:32:02;;;;;;;0.57;0.45;;;;;;;19.36;53.03;100125.27;1679475;84;21053;-93
2021/08/26 11:34:46;;;;;;;1.70;0.65;;;;;;;19.35;53.47;100123.96;1701135;84;21028;-94
2021/08/26 11:37:31;;;;;;;1.65;0.50;;;;;;;19.36;53.34;100124.40;1700988;84;21000;-94
2021/08/26 11:40:06;;;;;;;0.60;0.50;;;;;;;19.34;53.22;100127.09;1701100;83;21071;-93
2021/08/26 11:42:46;;;;;;;1.60;0.80;;;;;;;19.47;53.36;100126.38;1701019;84;21157;-94
2021/08/26 11:45:29;;;;;;;1.98;0.50;;;;;;;19.62;53.13;100122.03;1701292;84;21487;-93
2021/08/26 11:48:06;;;;;;;1.75;0.40;;;;;;;19.91;53.17;100124.98;1701260;83;21101;-94